This is the latest recevied weather packets stored in our database for station/object CQ0XBF-11. If no packets are shown the sender has not sent any weather packets the latest 10 day(s).
| Time | Temp. | Humidity | Pressure | Rain* | Wind** | Luminosity | Snow |
|---|---|---|---|---|---|---|---|
| 1777634934 | 22.78° C | 42% | - | 0 mm | - | - | - |
| 1777634855 | 22.22° C | 41% | - | 0 mm | - | - | - |
| 1777634813 | 22.22° C | 41% | - | 0 mm | - | - | - |
| 1777634723 | 22.78° C | 43% | - | 0 mm | - | - | - |
| 1777634691 | 22.78° C | 43% | - | 0 mm | - | - | - |
| 1777634570 | 22.78° C | 43% | - | 0 mm | - | - | - |
| 1777634448 | 21.67° C | 42% | - | 0 mm | - | - | - |
| 1777634373 | 21.67° C | 44% | - | 0 mm | - | - | - |
| 1777634326 | 21.67° C | 44% | - | 0 mm | - | - | - |
| 1777634245 | 21.67° C | 43% | - | 0 mm | - | - | - |
| 1777634205 | 21.67° C | 43% | - | 0 mm | - | - | - |
| 1777634083 | 21.67° C | 44% | - | 0 mm | - | - | - |
| 1777633962 | 21.11° C | 44% | - | 0 mm | - | - | - |
| 1777633885 | 21.11° C | 43% | - | 0 mm | - | - | - |
| 1777633841 | 21.11° C | 43% | - | 0 mm | - | - | - |
| 1777633719 | 21.67° C | 48% | - | 0 mm | - | - | - |
| 1777633661 | 21.11° C | 49% | - | 0 mm | - | - | - |
| 1777633597 | 21.11° C | 49% | - | 0 mm | - | - | - |
| 1777633476 | 20.56° C | 47% | - | 0 mm | - | - | - |
| 1777633386 | 20.56° C | 48% | - | 0 mm | - | - | - |
| 1777633355 | 20.56° C | 48% | - | 0 mm | - | - | - |
| 1777633269 | 20.56° C | 47% | - | 0 mm | - | - | - |
| 1777633233 | 20.56° C | 47% | - | 0 mm | - | - | - |
| 1777633112 | 21.11° C | 48% | - | 0 mm | - | - | - |
| 1777633038 | 21.11° C | 48% | - | 0 mm | - | - | - |
* Rain since midnight (hover to see other rain measurements)
** Current wind speed in m/s (hover to see current wind gust speed)